London, Canada
Current Conditions -  °F | °C
As of 2:00 AM on Friday 28 Nov 2014 (Local Time) from CYXU Reporting Station
Snow Showers Snow Showers  
Wind Chill: 10°   Ceiling: 4500
Heat Index: 21°   Visibility: 12mi
Dew Point: 12°   Wind: 10mph
Humidity: 68%   Direction: 280°W
Pressure: 30.21"   Gusts: 20mph
Location:  42.99°N, 81.25°W
Report Text: CYXU 280700Z 28009G17KT 12SM -SHSN BKN045 M06/M11 A3021 RMK SC7 CVCTV CLD EMBD SLP245
Loading
Personal Weather Stations






























Interactive Weather Map New forecast layout! Learn more

10-Day Weather Forecast

Advertisements
Track Severe Weather on mobile